sensor_id;sensor_type;location;lat;lon;timestamp;temperature;humidity
50556;DHT22;36508;52.512;13.450;2024-03-25T00:00:16;6.20;99.90
50556;DHT22;36508;52.512;13.450;2024-03-25T00:02:42;6.20;99.90
50556;DHT22;36508;52.512;13.450;2024-03-25T00:05:08;6.20;99.90
50556;DHT22;36508;52.512;13.450;2024-03-25T00:07:37;6.20;99.90
50556;DHT22;36508;52.512;13.450;2024-03-25T00:10:04;6.20;99.90
50556;DHT22;36508;52.512;13.450;2024-03-25T00:12:35;6.20;99.90
50556;DHT22;36508;52.512;13.450;2024-03-25T00:15:00;6.20;99.90
50556;DHT22;36508;52.512;13.450;2024-03-25T00:17:26;6.30;99.90
50556;DHT22;36508;52.512;13.450;2024-03-25T00:19:52;6.30;99.90
50556;DHT22;36508;52.512;13.450;2024-03-25T00:22:19;6.40;99.90
50556;DHT22;36508;52.512;13.450;2024-03-25T00:24:45;6.40;99.90
50556;DHT22;36508;52.512;13.450;2024-03-25T00:27:12;6.40;99.90
50556;DHT22;36508;52.512;13.450;2024-03-25T00:29:37;6.40;99.90
50556;DHT22;36508;52.512;13.450;2024-03-25T00:32:04;6.40;99.90
50556;DHT22;36508;52.512;13.450;2024-03-25T00:34:29;6.40;99.90
50556;DHT22;36508;52.512;13.450;2024-03-25T00:36:55;6.40;99.90
50556;DHT22;36508;52.512;13.450;2024-03-25T00:39:21;6.40;99.90
50556;DHT22;36508;52.512;13.450;2024-03-25T00:41:47;6.40;99.90
50556;DHT22;36508;52.512;13.450;2024-03-25T00:44:13;6.40;99.90
50556;DHT22;36508;52.512;13.450;2024-03-25T00:46:38;6.30;99.90
50556;DHT22;36508;52.512;13.450;2024-03-25T00:49:05;6.30;99.90
50556;DHT22;36508;52.512;13.450;2024-03-25T00:51:31;6.30;99.90
50556;DHT22;36508;52.512;13.450;2024-03-25T00:53:57;6.30;99.90
50556;DHT22;36508;52.512;13.450;2024-03-25T00:56:22;6.30;99.90
50556;DHT22;36508;52.512;13.450;2024-03-25T00:58:48;6.30;99.90
50556;DHT22;36508;52.512;13.450;2024-03-25T01:01:14;6.30;99.90
50556;DHT22;36508;52.512;13.450;2024-03-25T01:03:39;6.30;99.90
50556;DHT22;36508;52.512;13.450;2024-03-25T01:06:05;6.30;99.90
50556;DHT22;36508;52.512;13.450;2024-03-25T01:08:30;6.30;99.90
50556;DHT22;36508;52.512;13.450;2024-03-25T01:10:56;6.30;99.90
50556;DHT22;36508;52.512;13.450;2024-03-25T01:13:22;6.30;99.90
50556;DHT22;36508;52.512;13.450;2024-03-25T01:15:47;6.30;99.90
50556;DHT22;36508;52.512;13.450;2024-03-25T01:18:13;6.20;99.90
50556;DHT22;36508;52.512;13.450;2024-03-25T01:20:38;6.30;99.90
50556;DHT22;36508;52.512;13.450;2024-03-25T01:23:04;6.30;99.90
50556;DHT22;36508;52.512;13.450;2024-03-25T01:25:30;6.30;99.90
50556;DHT22;36508;52.512;13.450;2024-03-25T01:27:56;6.30;99.90
50556;DHT22;36508;52.512;13.450;2024-03-25T01:30:22;6.30;99.90
50556;DHT22;36508;52.512;13.450;2024-03-25T01:32:47;6.30;99.90
50556;DHT22;36508;52.512;13.450;2024-03-25T01:35:14;6.30;99.90
50556;DHT22;36508;52.512;13.450;2024-03-25T01:37:41;6.30;99.90
50556;DHT22;36508;52.512;13.450;2024-03-25T01:40:08;6.30;99.90
50556;DHT22;36508;52.512;13.450;2024-03-25T01:42:36;6.30;99.90
50556;DHT22;36508;52.512;13.450;2024-03-25T01:45:02;6.30;99.90
50556;DHT22;36508;52.512;13.450;2024-03-25T01:47:30;6.40;99.90
50556;DHT22;36508;52.512;13.450;2024-03-25T01:49:58;6.40;99.90
50556;DHT22;36508;52.512;13.450;2024-03-25T01:52:24;6.40;99.90
50556;DHT22;36508;52.512;13.450;2024-03-25T01:54:52;6.40;99.90
50556;DHT22;36508;52.512;13.450;2024-03-25T01:57:18;6.40;99.90
50556;DHT22;36508;52.512;13.450;2024-03-25T01:59:44;6.40;99.90
50556;DHT22;36508;52.512;13.450;2024-03-25T02:02:11;6.50;99.90
50556;DHT22;36508;52.512;13.450;2024-03-25T02:04:39;6.50;99.90
50556;DHT22;36508;52.512;13.450;2024-03-25T02:07:07;6.50;99.90
50556;DHT22;36508;52.512;13.450;2024-03-25T02:09:34;6.40;99.90
50556;DHT22;36508;52.512;13.450;2024-03-25T02:12:01;6.30;99.90
50556;DHT22;36508;52.512;13.450;2024-03-25T02:14:27;6.20;99.90
50556;DHT22;36508;52.512;13.450;2024-03-25T02:16:53;6.20;99.90
50556;DHT22;36508;52.512;13.450;2024-03-25T02:19:19;6.20;99.90
50556;DHT22;36508;52.512;13.450;2024-03-25T02:21:47;6.10;99.90
50556;DHT22;36508;52.512;13.450;2024-03-25T02:24:14;6.10;99.90
50556;DHT22;36508;52.512;13.450;2024-03-25T02:26:40;6.10;99.90
50556;DHT22;36508;52.512;13.450;2024-03-25T02:29:09;6.10;99.90
50556;DHT22;36508;52.512;13.450;2024-03-25T02:31:35;6.20;99.90
50556;DHT22;36508;52.512;13.450;2024-03-25T02:34:00;6.20;99.90
50556;DHT22;36508;52.512;13.450;2024-03-25T02:36:26;6.20;99.90
50556;DHT22;36508;52.512;13.450;2024-03-25T02:38:53;6.20;99.90
50556;DHT22;36508;52.512;13.450;2024-03-25T02:41:19;6.20;99.90
50556;DHT22;36508;52.512;13.450;2024-03-25T02:47:06;6.20;99.90
50556;DHT22;36508;52.512;13.450;2024-03-25T02:49:32;6.20;99.90
50556;DHT22;36508;52.512;13.450;2024-03-25T02:51:59;6.20;99.90
50556;DHT22;36508;52.512;13.450;2024-03-25T02:54:25;6.20;99.90
50556;DHT22;36508;52.512;13.450;2024-03-25T02:56:50;6.10;99.90
50556;DHT22;36508;52.512;13.450;2024-03-25T02:59:16;6.00;99.90
50556;DHT22;36508;52.512;13.450;2024-03-25T03:01:41;5.90;99.90
50556;DHT22;36508;52.512;13.450;2024-03-25T03:04:07;5.90;99.90
50556;DHT22;36508;52.512;13.450;2024-03-25T03:06:33;5.90;99.90
50556;DHT22;36508;52.512;13.450;2024-03-25T03:08:58;5.90;99.90
50556;DHT22;36508;52.512;13.450;2024-03-25T03:11:24;5.90;99.90
50556;DHT22;36508;52.512;13.450;2024-03-25T03:13:50;5.80;99.90
50556;DHT22;36508;52.512;13.450;2024-03-25T03:16:15;5.80;99.90
50556;DHT22;36508;52.512;13.450;2024-03-25T03:18:41;5.80;99.90
50556;DHT22;36508;52.512;13.450;2024-03-25T03:21:06;5.80;99.90
50556;DHT22;36508;52.512;13.450;2024-03-25T03:23:32;5.80;99.90
50556;DHT22;36508;52.512;13.450;2024-03-25T03:25:57;5.80;99.90
50556;DHT22;36508;52.512;13.450;2024-03-25T03:28:25;5.90;99.90
50556;DHT22;36508;52.512;13.450;2024-03-25T03:30:51;5.90;99.90
50556;DHT22;36508;52.512;13.450;2024-03-25T03:33:16;5.90;99.90
50556;DHT22;36508;52.512;13.450;2024-03-25T03:35:42;6.00;99.90
50556;DHT22;36508;52.512;13.450;2024-03-25T03:38:08;6.00;99.90
50556;DHT22;36508;52.512;13.450;2024-03-25T03:40:34;5.90;99.90
50556;DHT22;36508;52.512;13.450;2024-03-25T03:42:59;5.90;99.90
50556;DHT22;36508;52.512;13.450;2024-03-25T03:45:25;5.90;99.90
50556;DHT22;36508;52.512;13.450;2024-03-25T03:47:51;5.90;99.90
50556;DHT22;36508;52.512;13.450;2024-03-25T03:50:17;5.90;99.90
50556;DHT22;36508;52.512;13.450;2024-03-25T03:52:42;5.90;99.90
50556;DHT22;36508;52.512;13.450;2024-03-25T03:55:08;5.90;99.90
50556;DHT22;36508;52.512;13.450;2024-03-25T03:57:34;6.00;99.90
50556;DHT22;36508;52.512;13.450;2024-03-25T04:00:00;6.00;99.90
50556;DHT22;36508;52.512;13.450;2024-03-25T04:02:27;6.00;99.90
50556;DHT22;36508;52.512;13.450;2024-03-25T04:04:52;6.00;99.90
50556;DHT22;36508;52.512;13.450;2024-03-25T04:07:19;6.00;99.90
50556;DHT22;36508;52.512;13.450;2024-03-25T04:09:45;6.00;99.90
50556;DHT22;36508;52.512;13.450;2024-03-25T04:12:10;5.90;99.90
50556;DHT22;36508;52.512;13.450;2024-03-25T04:14:36;5.80;99.90
50556;DHT22;36508;52.512;13.450;2024-03-25T04:17:01;5.80;99.90
50556;DHT22;36508;52.512;13.450;2024-03-25T04:19:28;5.80;99.90
50556;DHT22;36508;52.512;13.450;2024-03-25T04:21:54;5.90;99.90
50556;DHT22;36508;52.512;13.450;2024-03-25T04:24:20;5.90;99.90
50556;DHT22;36508;52.512;13.450;2024-03-25T04:26:46;5.90;99.90
50556;DHT22;36508;52.512;13.450;2024-03-25T04:29:11;5.90;99.90
50556;DHT22;36508;52.512;13.450;2024-03-25T04:31:37;5.90;99.90
50556;DHT22;36508;52.512;13.450;2024-03-25T04:34:05;5.90;99.90
50556;DHT22;36508;52.512;13.450;2024-03-25T04:36:31;5.90;99.90
50556;DHT22;36508;52.512;13.450;2024-03-25T04:38:57;5.90;99.90
50556;DHT22;36508;52.512;13.450;2024-03-25T04:41:23;5.90;99.90
50556;DHT22;36508;52.512;13.450;2024-03-25T04:43:48;6.00;99.90
50556;DHT22;36508;52.512;13.450;2024-03-25T04:46:14;6.00;99.90
50556;DHT22;36508;52.512;13.450;2024-03-25T04:48:39;5.90;99.90
50556;DHT22;36508;52.512;13.450;2024-03-25T04:51:05;6.00;99.90
50556;DHT22;36508;52.512;13.450;2024-03-25T04:53:31;6.10;99.90
50556;DHT22;36508;52.512;13.450;2024-03-25T04:55:57;6.00;99.90
50556;DHT22;36508;52.512;13.450;2024-03-25T04:58:23;6.00;99.90
50556;DHT22;36508;52.512;13.450;2024-03-25T05:00:49;6.00;99.90
50556;DHT22;36508;52.512;13.450;2024-03-25T05:03:14;6.00;99.90
50556;DHT22;36508;52.512;13.450;2024-03-25T05:05:40;6.00;99.90
50556;DHT22;36508;52.512;13.450;2024-03-25T05:08:06;6.00;99.90
50556;DHT22;36508;52.512;13.450;2024-03-25T05:10:32;6.00;99.90
50556;DHT22;36508;52.512;13.450;2024-03-25T05:12:57;6.00;99.90
50556;DHT22;36508;52.512;13.450;2024-03-25T05:15:23;6.00;99.90
50556;DHT22;36508;52.512;13.450;2024-03-25T05:17:48;6.00;99.90
50556;DHT22;36508;52.512;13.450;2024-03-25T05:20:14;6.00;99.90
50556;DHT22;36508;52.512;13.450;2024-03-25T05:22:39;5.90;99.90
50556;DHT22;36508;52.512;13.450;2024-03-25T05:25:05;5.90;99.90
50556;DHT22;36508;52.512;13.450;2024-03-25T05:27:31;6.00;99.90
50556;DHT22;36508;52.512;13.450;2024-03-25T05:29:56;6.00;99.90
50556;DHT22;36508;52.512;13.450;2024-03-25T05:32:22;6.00;99.90
50556;DHT22;36508;52.512;13.450;2024-03-25T05:34:48;6.00;99.90
50556;DHT22;36508;52.512;13.450;2024-03-25T05:37:14;6.00;99.90
50556;DHT22;36508;52.512;13.450;2024-03-25T05:39:39;6.00;99.90
50556;DHT22;36508;52.512;13.450;2024-03-25T05:42:05;6.00;99.90
50556;DHT22;36508;52.512;13.450;2024-03-25T05:44:31;6.00;99.90
50556;DHT22;36508;52.512;13.450;2024-03-25T05:46:57;6.10;99.90
50556;DHT22;36508;52.512;13.450;2024-03-25T05:49:22;6.10;99.90
50556;DHT22;36508;52.512;13.450;2024-03-25T05:51:48;6.10;99.90
50556;DHT22;36508;52.512;13.450;2024-03-25T05:54:14;6.10;99.90
50556;DHT22;36508;52.512;13.450;2024-03-25T05:56:39;6.10;99.90
50556;DHT22;36508;52.512;13.450;2024-03-25T05:59:05;6.10;99.90
50556;DHT22;36508;52.512;13.450;2024-03-25T06:01:31;6.10;99.90
50556;DHT22;36508;52.512;13.450;2024-03-25T06:03:57;6.10;99.90
50556;DHT22;36508;52.512;13.450;2024-03-25T06:06:23;6.10;99.90
50556;DHT22;36508;52.512;13.450;2024-03-25T06:08:48;6.10;99.90
50556;DHT22;36508;52.512;13.450;2024-03-25T06:11:16;6.10;99.90
50556;DHT22;36508;52.512;13.450;2024-03-25T06:13:41;6.10;99.90
50556;DHT22;36508;52.512;13.450;2024-03-25T06:16:07;6.20;99.90
50556;DHT22;36508;52.512;13.450;2024-03-25T06:18:32;6.20;99.90
50556;DHT22;36508;52.512;13.450;2024-03-25T06:20:58;6.30;99.90
50556;DHT22;36508;52.512;13.450;2024-03-25T06:23:28;6.20;99.90
50556;DHT22;36508;52.512;13.450;2024-03-25T06:25:55;6.20;99.90
50556;DHT22;36508;52.512;13.450;2024-03-25T06:28:21;6.20;99.90
50556;DHT22;36508;52.512;13.450;2024-03-25T06:30:48;6.20;99.90
50556;DHT22;36508;52.512;13.450;2024-03-25T06:33:32;6.20;99.90
50556;DHT22;36508;52.512;13.450;2024-03-25T06:36:17;6.20;99.90
50556;DHT22;36508;52.512;13.450;2024-03-25T06:38:43;6.30;99.90
50556;DHT22;36508;52.512;13.450;2024-03-25T06:41:09;6.20;99.90
50556;DHT22;36508;52.512;13.450;2024-03-25T06:43:36;6.20;99.90
50556;DHT22;36508;52.512;13.450;2024-03-25T06:46:06;6.30;99.90
50556;DHT22;36508;52.512;13.450;2024-03-25T06:48:32;6.30;99.90
50556;DHT22;36508;52.512;13.450;2024-03-25T06:51:00;6.30;99.90
50556;DHT22;36508;52.512;13.450;2024-03-25T06:53:28;6.30;99.90
50556;DHT22;36508;52.512;13.450;2024-03-25T06:55:55;6.30;99.90
50556;DHT22;36508;52.512;13.450;2024-03-25T06:58:22;6.20;99.90
50556;DHT22;36508;52.512;13.450;2024-03-25T07:00:48;6.20;99.90
50556;DHT22;36508;52.512;13.450;2024-03-25T07:03:23;6.20;99.90
50556;DHT22;36508;52.512;13.450;2024-03-25T07:05:51;6.20;99.90
50556;DHT22;36508;52.512;13.450;2024-03-25T07:08:20;6.20;99.90
50556;DHT22;36508;52.512;13.450;2024-03-25T07:10:46;6.20;99.90
50556;DHT22;36508;52.512;13.450;2024-03-25T07:13:12;6.20;99.90
50556;DHT22;36508;52.512;13.450;2024-03-25T07:15:38;6.20;99.90
50556;DHT22;36508;52.512;13.450;2024-03-25T07:18:05;6.20;99.90
50556;DHT22;36508;52.512;13.450;2024-03-25T07:20:31;6.20;99.90
50556;DHT22;36508;52.512;13.450;2024-03-25T07:22:57;6.20;99.90
50556;DHT22;36508;52.512;13.450;2024-03-25T07:25:24;6.20;99.90
50556;DHT22;36508;52.512;13.450;2024-03-25T07:27:50;6.20;99.90
50556;DHT22;36508;52.512;13.450;2024-03-25T07:30:16;6.20;99.90
50556;DHT22;36508;52.512;13.450;2024-03-25T07:32:43;6.20;99.90
50556;DHT22;36508;52.512;13.450;2024-03-25T07:35:11;6.20;99.90
50556;DHT22;36508;52.512;13.450;2024-03-25T07:37:36;6.30;99.90
50556;DHT22;36508;52.512;13.450;2024-03-25T07:40:02;6.30;99.90
50556;DHT22;36508;52.512;13.450;2024-03-25T07:42:29;6.30;99.90
50556;DHT22;36508;52.512;13.450;2024-03-25T07:44:56;6.30;99.90
50556;DHT22;36508;52.512;13.450;2024-03-25T07:47:22;6.30;99.90
50556;DHT22;36508;52.512;13.450;2024-03-25T07:49:48;6.30;99.90
50556;DHT22;36508;52.512;13.450;2024-03-25T07:52:13;6.30;99.90
50556;DHT22;36508;52.512;13.450;2024-03-25T07:54:39;6.30;99.90
50556;DHT22;36508;52.512;13.450;2024-03-25T07:57:05;6.40;99.90
50556;DHT22;36508;52.512;13.450;2024-03-25T07:59:30;6.30;99.90
50556;DHT22;36508;52.512;13.450;2024-03-25T08:01:56;6.30;99.90
50556;DHT22;36508;52.512;13.450;2024-03-25T08:04:22;6.30;99.90
50556;DHT22;36508;52.512;13.450;2024-03-25T08:06:48;6.20;99.90
50556;DHT22;36508;52.512;13.450;2024-03-25T08:09:15;6.30;99.90
50556;DHT22;36508;52.512;13.450;2024-03-25T08:11:42;6.20;99.90
50556;DHT22;36508;52.512;13.450;2024-03-25T08:14:11;6.30;99.90
50556;DHT22;36508;52.512;13.450;2024-03-25T08:16:37;6.20;99.90
50556;DHT22;36508;52.512;13.450;2024-03-25T08:19:03;6.20;99.90
50556;DHT22;36508;52.512;13.450;2024-03-25T08:21:28;6.30;99.90
50556;DHT22;36508;52.512;13.450;2024-03-25T08:23:54;6.40;99.90
50556;DHT22;36508;52.512;13.450;2024-03-25T08:26:20;6.60;99.90
50556;DHT22;36508;52.512;13.450;2024-03-25T08:28:45;6.80;99.90
50556;DHT22;36508;52.512;13.450;2024-03-25T08:31:11;6.90;99.90
50556;DHT22;36508;52.512;13.450;2024-03-25T08:33:37;7.10;99.90
50556;DHT22;36508;52.512;13.450;2024-03-25T08:36:02;7.10;99.90
50556;DHT22;36508;52.512;13.450;2024-03-25T08:38:29;7.20;99.90
50556;DHT22;36508;52.512;13.450;2024-03-25T08:40:54;7.20;99.90
50556;DHT22;36508;52.512;13.450;2024-03-25T08:43:20;7.10;99.90
50556;DHT22;36508;52.512;13.450;2024-03-25T08:45:46;7.20;99.90
50556;DHT22;36508;52.512;13.450;2024-03-25T08:48:12;7.30;99.90
50556;DHT22;36508;52.512;13.450;2024-03-25T08:50:38;7.30;99.90
50556;DHT22;36508;52.512;13.450;2024-03-25T08:53:04;7.20;99.90
50556;DHT22;36508;52.512;13.450;2024-03-25T08:55:30;7.10;99.90
50556;DHT22;36508;52.512;13.450;2024-03-25T08:57:57;7.00;99.90
50556;DHT22;36508;52.512;13.450;2024-03-25T09:00:26;7.00;99.90
50556;DHT22;36508;52.512;13.450;2024-03-25T09:02:53;7.10;99.90
50556;DHT22;36508;52.512;13.450;2024-03-25T09:05:19;7.10;99.90
50556;DHT22;36508;52.512;13.450;2024-03-25T09:07:45;7.20;99.90
50556;DHT22;36508;52.512;13.450;2024-03-25T09:10:15;7.20;99.90
50556;DHT22;36508;52.512;13.450;2024-03-25T09:12:59;7.30;99.90
50556;DHT22;36508;52.512;13.450;2024-03-25T09:15:25;7.40;99.90
50556;DHT22;36508;52.512;13.450;2024-03-25T09:17:50;7.30;99.90
50556;DHT22;36508;52.512;13.450;2024-03-25T09:20:16;7.20;99.90
50556;DHT22;36508;52.512;13.450;2024-03-25T09:22:46;7.30;99.90
50556;DHT22;36508;52.512;13.450;2024-03-25T09:25:12;7.20;99.90
50556;DHT22;36508;52.512;13.450;2024-03-25T09:27:39;7.30;99.90
50556;DHT22;36508;52.512;13.450;2024-03-25T09:30:05;7.50;99.90
50556;DHT22;36508;52.512;13.450;2024-03-25T09:32:31;7.50;99.90
50556;DHT22;36508;52.512;13.450;2024-03-25T09:34:57;7.50;99.90
50556;DHT22;36508;52.512;13.450;2024-03-25T09:37:23;7.40;99.90
50556;DHT22;36508;52.512;13.450;2024-03-25T09:39:48;7.30;99.90
50556;DHT22;36508;52.512;13.450;2024-03-25T09:42:15;7.30;99.90
50556;DHT22;36508;52.512;13.450;2024-03-25T09:44:44;7.30;99.90
50556;DHT22;36508;52.512;13.450;2024-03-25T09:47:10;7.30;99.90
50556;DHT22;36508;52.512;13.450;2024-03-25T09:49:39;7.40;99.90
50556;DHT22;36508;52.512;13.450;2024-03-25T09:52:06;7.40;99.90
50556;DHT22;36508;52.512;13.450;2024-03-25T09:54:33;7.40;99.90
50556;DHT22;36508;52.512;13.450;2024-03-25T09:57:00;7.50;99.90
50556;DHT22;36508;52.512;13.450;2024-03-25T09:59:26;7.50;99.90
50556;DHT22;36508;52.512;13.450;2024-03-25T10:01:53;7.50;99.90
50556;DHT22;36508;52.512;13.450;2024-03-25T10:04:19;7.70;99.90
50556;DHT22;36508;52.512;13.450;2024-03-25T10:06:45;7.80;99.90
50556;DHT22;36508;52.512;13.450;2024-03-25T10:09:11;7.80;99.90
50556;DHT22;36508;52.512;13.450;2024-03-25T10:11:36;8.00;99.90
50556;DHT22;36508;52.512;13.450;2024-03-25T10:14:02;8.20;99.90
50556;DHT22;36508;52.512;13.450;2024-03-25T10:16:28;8.20;99.90
50556;DHT22;36508;52.512;13.450;2024-03-25T10:18:54;8.40;99.90
50556;DHT22;36508;52.512;13.450;2024-03-25T10:21:20;8.60;99.90
50556;DHT22;36508;52.512;13.450;2024-03-25T10:23:47;8.60;99.90
50556;DHT22;36508;52.512;13.450;2024-03-25T10:26:26;8.80;99.90
50556;DHT22;36508;52.512;13.450;2024-03-25T10:29:02;8.90;99.90
50556;DHT22;36508;52.512;13.450;2024-03-25T10:31:32;8.80;99.90
50556;DHT22;36508;52.512;13.450;2024-03-25T10:33:58;8.70;99.90
50556;DHT22;36508;52.512;13.450;2024-03-25T10:36:25;8.50;99.90
50556;DHT22;36508;52.512;13.450;2024-03-25T10:38:56;8.50;99.90
50556;DHT22;36508;52.512;13.450;2024-03-25T10:41:22;8.50;99.90
50556;DHT22;36508;52.512;13.450;2024-03-25T10:43:48;8.60;99.90
50556;DHT22;36508;52.512;13.450;2024-03-25T10:46:19;8.50;99.90
50556;DHT22;36508;52.512;13.450;2024-03-25T10:49:04;8.40;99.90
50556;DHT22;36508;52.512;13.450;2024-03-25T10:51:31;8.40;99.90
50556;DHT22;36508;52.512;13.450;2024-03-25T10:53:59;8.40;99.90
50556;DHT22;36508;52.512;13.450;2024-03-25T10:56:25;8.60;99.90
50556;DHT22;36508;52.512;13.450;2024-03-25T10:58:52;9.10;99.90
50556;DHT22;36508;52.512;13.450;2024-03-25T11:01:19;9.60;99.90
50556;DHT22;36508;52.512;13.450;2024-03-25T11:03:46;10.20;99.90
50556;DHT22;36508;52.512;13.450;2024-03-25T11:06:13;10.30;99.90
50556;DHT22;36508;52.512;13.450;2024-03-25T11:08:39;10.70;99.90
50556;DHT22;36508;52.512;13.450;2024-03-25T11:11:07;11.10;99.90
50556;DHT22;36508;52.512;13.450;2024-03-25T11:13:33;11.10;99.90
50556;DHT22;36508;52.512;13.450;2024-03-25T11:15:59;10.80;99.90
50556;DHT22;36508;52.512;13.450;2024-03-25T11:18:25;10.90;99.90
50556;DHT22;36508;52.512;13.450;2024-03-25T11:21:05;11.40;99.90
50556;DHT22;36508;52.512;13.450;2024-03-25T11:23:43;11.80;99.90
50556;DHT22;36508;52.512;13.450;2024-03-25T11:26:24;12.30;99.90
50556;DHT22;36508;52.512;13.450;2024-03-25T11:28:50;12.30;99.90
50556;DHT22;36508;52.512;13.450;2024-03-25T11:31:20;11.70;99.90
50556;DHT22;36508;52.512;13.450;2024-03-25T11:33:47;10.70;99.90
50556;DHT22;36508;52.512;13.450;2024-03-25T11:36:12;10.50;99.90
50556;DHT22;36508;52.512;13.450;2024-03-25T11:38:38;10.70;99.90
50556;DHT22;36508;52.512;13.450;2024-03-25T11:41:07;11.30;99.90
50556;DHT22;36508;52.512;13.450;2024-03-25T11:43:33;11.40;99.90
50556;DHT22;36508;52.512;13.450;2024-03-25T11:45:59;10.90;99.90
50556;DHT22;36508;52.512;13.450;2024-03-25T11:48:26;11.30;99.90
50556;DHT22;36508;52.512;13.450;2024-03-25T11:50:51;11.20;99.90
50556;DHT22;36508;52.512;13.450;2024-03-25T11:53:17;10.90;99.90
50556;DHT22;36508;52.512;13.450;2024-03-25T11:55:47;10.30;99.90
50556;DHT22;36508;52.512;13.450;2024-03-25T11:58:14;10.10;99.90
50556;DHT22;36508;52.512;13.450;2024-03-25T12:00:46;10.20;99.90
50556;DHT22;36508;52.512;13.450;2024-03-25T12:03:17;10.40;99.90
50556;DHT22;36508;52.512;13.450;2024-03-25T12:05:46;10.80;99.90
50556;DHT22;36508;52.512;13.450;2024-03-25T12:08:11;11.00;99.90
50556;DHT22;36508;52.512;13.450;2024-03-25T12:10:39;10.90;99.90
50556;DHT22;36508;52.512;13.450;2024-03-25T12:13:23;10.80;99.90
50556;DHT22;36508;52.512;13.450;2024-03-25T12:15:51;11.00;99.90
50556;DHT22;36508;52.512;13.450;2024-03-25T12:18:17;11.20;99.90
50556;DHT22;36508;52.512;13.450;2024-03-25T12:20:47;11.50;99.90
50556;DHT22;36508;52.512;13.450;2024-03-25T12:23:13;12.50;99.90
50556;DHT22;36508;52.512;13.450;2024-03-25T12:25:38;13.30;99.90
50556;DHT22;36508;52.512;13.450;2024-03-25T12:28:10;13.90;99.90
50556;DHT22;36508;52.512;13.450;2024-03-25T12:30:51;13.70;99.90
50556;DHT22;36508;52.512;13.450;2024-03-25T12:33:17;13.00;99.90
50556;DHT22;36508;52.512;13.450;2024-03-25T12:35:50;12.30;99.90
50556;DHT22;36508;52.512;13.450;2024-03-25T12:40:48;11.00;99.90
50556;DHT22;36508;52.512;13.450;2024-03-25T12:43:16;10.80;99.90
50556;DHT22;36508;52.512;13.450;2024-03-25T12:45:42;10.70;99.90
50556;DHT22;36508;52.512;13.450;2024-03-25T12:48:09;10.90;99.90
50556;DHT22;36508;52.512;13.450;2024-03-25T12:50:34;11.00;99.90
50556;DHT22;36508;52.512;13.450;2024-03-25T12:53:00;11.00;99.90
50556;DHT22;36508;52.512;13.450;2024-03-25T12:55:27;11.00;99.90
50556;DHT22;36508;52.512;13.450;2024-03-25T12:57:52;10.50;99.90
50556;DHT22;36508;52.512;13.450;2024-03-25T13:00:18;10.00;99.90
50556;DHT22;36508;52.512;13.450;2024-03-25T13:02:45;9.80;99.90
50556;DHT22;36508;52.512;13.450;2024-03-25T13:05:10;9.80;99.90
50556;DHT22;36508;52.512;13.450;2024-03-25T13:07:36;9.80;99.90
50556;DHT22;36508;52.512;13.450;2024-03-25T13:10:01;9.70;99.90
50556;DHT22;36508;52.512;13.450;2024-03-25T13:12:30;9.80;99.90
50556;DHT22;36508;52.512;13.450;2024-03-25T13:14:57;9.90;99.90
50556;DHT22;36508;52.512;13.450;2024-03-25T13:17:24;10.10;99.90
50556;DHT22;36508;52.512;13.450;2024-03-25T13:19:50;10.20;99.90
50556;DHT22;36508;52.512;13.450;2024-03-25T13:22:15;10.30;99.90
50556;DHT22;36508;52.512;13.450;2024-03-25T13:24:41;10.50;99.90
50556;DHT22;36508;52.512;13.450;2024-03-25T13:27:08;10.70;99.90
50556;DHT22;36508;52.512;13.450;2024-03-25T13:29:34;10.80;99.90
50556;DHT22;36508;52.512;13.450;2024-03-25T13:32:02;11.10;99.90
50556;DHT22;36508;52.512;13.450;2024-03-25T13:34:28;11.00;99.90
50556;DHT22;36508;52.512;13.450;2024-03-25T13:36:54;11.20;99.90
50556;DHT22;36508;52.512;13.450;2024-03-25T13:39:19;11.20;99.90
50556;DHT22;36508;52.512;13.450;2024-03-25T13:41:45;11.30;99.90
50556;DHT22;36508;52.512;13.450;2024-03-25T13:44:11;11.60;99.90
50556;DHT22;36508;52.512;13.450;2024-03-25T13:46:37;11.90;99.90
50556;DHT22;36508;52.512;13.450;2024-03-25T13:49:02;12.00;99.90
50556;DHT22;36508;52.512;13.450;2024-03-25T13:51:29;11.60;99.90
50556;DHT22;36508;52.512;13.450;2024-03-25T13:53:54;11.50;99.90
50556;DHT22;36508;52.512;13.450;2024-03-25T13:56:20;11.60;99.90
50556;DHT22;36508;52.512;13.450;2024-03-25T13:58:46;12.20;99.90
50556;DHT22;36508;52.512;13.450;2024-03-25T14:01:12;12.60;99.90
50556;DHT22;36508;52.512;13.450;2024-03-25T14:03:37;12.50;99.90
50556;DHT22;36508;52.512;13.450;2024-03-25T14:06:03;12.40;99.90
50556;DHT22;36508;52.512;13.450;2024-03-25T14:08:29;12.50;99.90
50556;DHT22;36508;52.512;13.450;2024-03-25T14:10:58;12.40;99.90
50556;DHT22;36508;52.512;13.450;2024-03-25T14:13:24;12.10;99.90
50556;DHT22;36508;52.512;13.450;2024-03-25T14:15:51;12.10;99.90
50556;DHT22;36508;52.512;13.450;2024-03-25T14:18:16;11.70;99.90
50556;DHT22;36508;52.512;13.450;2024-03-25T14:20:42;11.60;99.90
50556;DHT22;36508;52.512;13.450;2024-03-25T14:23:08;11.80;99.90
50556;DHT22;36508;52.512;13.450;2024-03-25T14:25:34;11.60;99.90
50556;DHT22;36508;52.512;13.450;2024-03-25T14:27:59;11.40;99.90
50556;DHT22;36508;52.512;13.450;2024-03-25T14:30:25;11.50;99.90
50556;DHT22;36508;52.512;13.450;2024-03-25T14:32:51;11.50;99.90
50556;DHT22;36508;52.512;13.450;2024-03-25T14:35:17;11.40;99.90
50556;DHT22;36508;52.512;13.450;2024-03-25T14:37:42;11.20;99.90
50556;DHT22;36508;52.512;13.450;2024-03-25T14:40:08;11.10;99.90
50556;DHT22;36508;52.512;13.450;2024-03-25T14:42:35;11.00;99.90
50556;DHT22;36508;52.512;13.450;2024-03-25T14:45:03;10.90;99.90
50556;DHT22;36508;52.512;13.450;2024-03-25T14:47:31;10.80;99.90
50556;DHT22;36508;52.512;13.450;2024-03-25T14:49:56;10.50;99.90
50556;DHT22;36508;52.512;13.450;2024-03-25T14:52:23;10.20;99.90
50556;DHT22;36508;52.512;13.450;2024-03-25T14:54:48;10.10;99.90
50556;DHT22;36508;52.512;13.450;2024-03-25T14:57:14;10.00;99.90
50556;DHT22;36508;52.512;13.450;2024-03-25T14:59:40;10.00;99.90
50556;DHT22;36508;52.512;13.450;2024-03-25T15:02:05;10.00;99.90
50556;DHT22;36508;52.512;13.450;2024-03-25T15:04:31;10.20;99.90
50556;DHT22;36508;52.512;13.450;2024-03-25T15:06:58;10.40;99.90
50556;DHT22;36508;52.512;13.450;2024-03-25T15:09:24;10.90;99.90
50556;DHT22;36508;52.512;13.450;2024-03-25T15:11:50;11.30;99.90
50556;DHT22;36508;52.512;13.450;2024-03-25T15:14:16;11.30;99.90
50556;DHT22;36508;52.512;13.450;2024-03-25T15:16:42;11.60;99.90
50556;DHT22;36508;52.512;13.450;2024-03-25T15:19:07;11.40;99.90
50556;DHT22;36508;52.512;13.450;2024-03-25T15:21:36;10.90;99.90
50556;DHT22;36508;52.512;13.450;2024-03-25T15:24:02;10.80;99.90
50556;DHT22;36508;52.512;13.450;2024-03-25T15:26:28;10.70;99.90
50556;DHT22;36508;52.512;13.450;2024-03-25T15:28:53;10.40;99.90